Time;durP1;ratioP1;P1;durP2;ratioP2;P2;SDS_P1;SDS_P2;PMS_P1;PMS_P2;Temp;Humidity;BMP_temperature;BMP_pressure;BME280_temperature;BME280_humidity;BME280_pressure;Samples;Min_cycle;Max_cycle;Signal;HPM_P1;HPM_P2
2022/05/06 00:01:53;;;;;;;3.38;1.50;;;;;;;;;;5076883;28;20049;-77
2022/05/06 00:04:20;;;;;;;6.03;2.15;;;;;;;;;;5076413;28;20102;-77
2022/05/06 00:06:48;;;;;;;3.75;1.80;;;;;;;;;;5077386;28;20044;-80
2022/05/06 00:09:15;;;;;;;3.47;1.30;;;;;;;;;;5076689;28;20102;-78
2022/05/06 00:11:41;;;;;;;3.75;1.70;;;;;;;;;;5075947;28;20555;-78
2022/05/06 00:14:08;;;;;;;4.45;2.00;;;;;;;;;;5075129;28;20361;-77
2022/05/06 00:16:35;;;;;;;4.85;2.00;;;;;;;;;;5075024;28;20044;-77
2022/05/06 00:19:02;;;;;;;5.07;2.03;;;;;;;;;;5075131;28;20052;-77
2022/05/06 00:21:29;;;;;;;4.07;1.60;;;;;;;;;;5074356;28;20052;-77
2022/05/06 00:23:57;;;;;;;4.68;2.20;;;;;;;;;;5075014;28;20494;-77
2022/05/06 00:26:24;;;;;;;4.38;2.00;;;;;;;;;;5075518;28;20045;-78
2022/05/06 00:28:51;;;;;;;4.75;2.30;;;;;;;;;;5080002;28;20055;-78
2022/05/06 00:31:17;;;;;;;5.90;2.50;;;;;;;;;;5081896;28;20102;-80
2022/05/06 00:33:44;;;;;;;6.28;2.80;;;;;;;;;;5081703;28;20049;-79
2022/05/06 00:36:11;;;;;;;6.85;2.70;;;;;;;;;;5074352;28;20045;-79
2022/05/06 00:38:38;;;;;;;4.60;1.98;;;;;;;;;;5074405;28;20044;-79
2022/05/06 00:41:06;;;;;;;5.57;2.72;;;;;;;;;;5075231;28;20094;-79
2022/05/06 00:43:33;;;;;;;8.85;2.58;;;;;;;;;;5075114;28;20461;-79
2022/05/06 00:46:00;;;;;;;5.68;2.40;;;;;;;;;;5069760;28;20102;-79
2022/05/06 00:48:28;;;;;;;6.50;2.50;;;;;;;;;;5054929;28;20102;-78
2022/05/06 00:50:57;;;;;;;4.00;2.00;;;;;;;;;;5060118;28;20102;-79
2022/05/06 00:53:24;;;;;;;4.85;2.10;;;;;;;;;;5061639;28;20049;-79
2022/05/06 00:55:51;;;;;;;5.10;2.13;;;;;;;;;;5061137;28;20045;-79
2022/05/06 00:58:20;;;;;;;6.80;3.00;;;;;;;;;;5060138;28;20045;-79
2022/05/06 01:00:47;;;;;;;7.05;2.55;;;;;;;;;;5058635;28;20571;-79
2022/05/06 01:03:14;;;;;;;6.13;2.45;;;;;;;;;;5060000;28;20332;-79
2022/05/06 01:05:42;;;;;;;6.70;3.08;;;;;;;;;;5056694;28;20096;-78
2022/05/06 01:08:10;;;;;;;4.70;2.60;;;;;;;;;;5056484;28;20446;-78
2022/05/06 01:10:37;;;;;;;5.65;2.70;;;;;;;;;;5057222;28;20087;-79
2022/05/06 01:13:04;;;;;;;6.10;2.35;;;;;;;;;;5056653;28;20072;-79
2022/05/06 01:15:32;;;;;;;7.57;3.15;;;;;;;;;;5055830;28;20107;-79
2022/05/06 01:17:59;;;;;;;4.63;2.35;;;;;;;;;;5056160;28;20563;-79
2022/05/06 01:20:26;;;;;;;3.63;1.80;;;;;;;;;;5055847;28;20582;-79
2022/05/06 01:22:56;;;;;;;3.20;1.40;;;;;;;;;;5057020;28;20045;-79
2022/05/06 01:25:23;;;;;;;2.75;1.27;;;;;;;;;;5056313;28;20095;-79
2022/05/06 01:27:55;;;;;;;4.57;1.70;;;;;;;;;;5054319;28;20053;-78
2022/05/06 01:30:30;;;;;;;5.13;1.50;;;;;;;;;;5052381;28;20041;-79
2022/05/06 01:33:00;;;;;;;2.92;1.40;;;;;;;;;;5055115;28;20106;-79
2022/05/06 01:35:28;;;;;;;3.63;1.38;;;;;;;;;;5054573;28;20098;-78
2022/05/06 01:38:03;;;;;;;2.40;1.20;;;;;;;;;;5054856;28;20052;-79
2022/05/06 01:40:32;;;;;;;2.90;1.40;;;;;;;;;;5054448;28;20499;-79
2022/05/06 01:43:01;;;;;;;2.13;1.10;;;;;;;;;;5055327;28;20049;-78
2022/05/06 01:45:30;;;;;;;3.85;1.60;;;;;;;;;;5057905;28;20053;-79
2022/05/06 01:47:59;;;;;;;3.92;1.90;;;;;;;;;;5077807;28;20052;-80
2022/05/06 01:50:27;;;;;;;3.80;1.85;;;;;;;;;;5077233;28;20048;-80
2022/05/06 01:52:57;;;;;;;3.78;2.10;;;;;;;;;;5077745;28;20556;-80
2022/05/06 01:55:26;;;;;;;3.78;1.73;;;;;;;;;;5077796;28;20095;-80
2022/05/06 01:57:53;;;;;;;3.50;1.95;;;;;;;;;;5077766;28;20049;-80
2022/05/06 02:00:20;;;;;;;3.53;1.60;;;;;;;;;;5077554;28;20136;-80
2022/05/06 02:02:47;;;;;;;4.07;1.80;;;;;;;;;;5077494;28;20056;-81
2022/05/06 02:05:19;;;;;;;4.88;1.90;;;;;;;;;;5077368;28;20097;-80
2022/05/06 02:07:48;;;;;;;4.05;1.90;;;;;;;;;;5076011;28;20502;-80
2022/05/06 02:10:15;;;;;;;3.38;1.60;;;;;;;;;;5078619;28;20041;-80
2022/05/06 02:12:44;;;;;;;3.90;1.67;;;;;;;;;;5080104;28;20044;-81
2022/05/06 02:15:12;;;;;;;3.75;1.65;;;;;;;;;;5080457;28;20169;-81
2022/05/06 02:17:39;;;;;;;4.22;1.85;;;;;;;;;;5091851;28;20066;-80
2022/05/06 02:20:08;;;;;;;4.18;1.70;;;;;;;;;;5089895;28;20121;-80
2022/05/06 02:22:36;;;;;;;3.13;1.48;;;;;;;;;;5091301;28;20048;-80
2022/05/06 02:25:04;;;;;;;5.40;1.85;;;;;;;;;;5082467;28;20051;-79
2022/05/06 02:27:31;;;;;;;3.58;1.50;;;;;;;;;;5079219;28;20118;-79
2022/05/06 02:35:28;;;;;;;7.30;3.22;;;;;;;;;;5078924;28;20056;-79
2022/05/06 02:37:55;;;;;;;6.60;3.60;;;;;;;;;;5079114;28;20084;-80
2022/05/06 02:40:22;;;;;;;6.78;3.63;;;;;;;;;;5079263;28;20048;-80
2022/05/06 02:42:49;;;;;;;6.82;3.20;;;;;;;;;;5079896;28;20053;-79
2022/05/06 02:45:17;;;;;;;7.05;3.42;;;;;;;;;;5078986;28;20053;-79
2022/05/06 02:47:45;;;;;;;6.35;2.88;;;;;;;;;;5061486;28;20049;-81
2022/05/06 02:50:13;;;;;;;4.03;2.30;;;;;;;;;;5081063;28;20051;-79
2022/05/06 02:52:40;;;;;;;3.75;1.98;;;;;;;;;;5072827;28;20175;-79
2022/05/06 02:55:08;;;;;;;4.38;2.10;;;;;;;;;;5058735;28;20488;-80
2022/05/06 02:57:35;;;;;;;4.22;2.30;;;;;;;;;;5058438;28;20041;-80
2022/05/06 03:00:01;;;;;;;4.22;2.00;;;;;;;;;;5057992;28;20045;-80
2022/05/06 03:02:30;;;;;;;4.80;2.30;;;;;;;;;;5058030;28;20108;-79
2022/05/06 03:04:57;;;;;;;5.72;2.30;;;;;;;;;;5057863;28;20701;-79
2022/05/06 03:07:24;;;;;;;4.20;2.08;;;;;;;;;;5057079;28;20049;-78
2022/05/06 03:09:52;;;;;;;4.40;2.17;;;;;;;;;;5057434;28;20061;-79
2022/05/06 03:12:19;;;;;;;5.15;2.35;;;;;;;;;;5056912;28;20393;-79
2022/05/06 03:14:46;;;;;;;7.30;2.45;;;;;;;;;;5057614;28;20065;-80
2022/05/06 03:17:13;;;;;;;4.68;2.42;;;;;;;;;;5057487;28;20051;-79
2022/05/06 03:19:41;;;;;;;5.85;2.50;;;;;;;;;;5057482;28;20426;-80
2022/05/06 03:22:09;;;;;;;3.58;2.20;;;;;;;;;;5057904;28;20057;-78
2022/05/06 03:24:35;;;;;;;4.93;2.30;;;;;;;;;;5057482;28;20086;-79
2022/05/06 03:27:02;;;;;;;4.93;2.13;;;;;;;;;;5057635;28;20057;-79
2022/05/06 03:29:29;;;;;;;4.53;2.38;;;;;;;;;;5057276;28;20045;-79
2022/05/06 03:31:56;;;;;;;5.85;2.28;;;;;;;;;;5056953;28;20514;-78
2022/05/06 03:34:23;;;;;;;5.22;2.30;;;;;;;;;;5056478;28;20053;-79
2022/05/06 03:36:55;;;;;;;4.97;2.15;;;;;;;;;;5056094;28;20107;-78
2022/05/06 03:39:21;;;;;;;5.38;2.30;;;;;;;;;;5056630;28;20053;-79
2022/05/06 03:41:48;;;;;;;6.35;2.30;;;;;;;;;;5056720;28;20045;-78
2022/05/06 03:44:15;;;;;;;4.32;2.17;;;;;;;;;;5056392;28;20565;-79
2022/05/06 03:46:42;;;;;;;5.05;2.08;;;;;;;;;;5067325;28;20465;-79
2022/05/06 03:49:08;;;;;;;4.38;2.00;;;;;;;;;;5076688;28;20052;-80
2022/05/06 03:51:34;;;;;;;4.28;2.40;;;;;;;;;;5076718;28;20045;-78
2022/05/06 03:54:02;;;;;;;4.22;2.00;;;;;;;;;;5076862;28;20056;-79
2022/05/06 03:56:32;;;;;;;4.20;2.05;;;;;;;;;;5076347;28;20101;-78
2022/05/06 03:58:59;;;;;;;3.95;1.90;;;;;;;;;;5074731;28;20048;-77
2022/05/06 04:01:26;;;;;;;4.05;2.20;;;;;;;;;;5075751;28;20063;-78
2022/05/06 04:03:54;;;;;;;4.85;2.08;;;;;;;;;;5083428;28;20041;-79
2022/05/06 04:06:21;;;;;;;4.32;2.53;;;;;;;;;;5076654;28;20147;-78
2022/05/06 04:08:48;;;;;;;4.25;2.47;;;;;;;;;;5077415;28;20145;-78
2022/05/06 04:11:19;;;;;;;5.72;2.53;;;;;;;;;;5075557;28;20556;-79
2022/05/06 04:13:46;;;;;;;4.60;2.33;;;;;;;;;;5075901;28;20048;-79
2022/05/06 04:16:14;;;;;;;4.97;2.80;;;;;;;;;;5077852;28;20049;-79
2022/05/06 04:18:40;;;;;;;5.13;2.78;;;;;;;;;;5074909;28;20172;-80
2022/05/06 04:23:52;;;;;;;5.07;3.00;;;;;;;;;;5078623;28;20105;-79
2022/05/06 04:26:20;;;;;;;5.03;2.80;;;;;;;;;;5076271;28;20048;-79
2022/05/06 04:28:47;;;;;;;6.18;3.00;;;;;;;;;;5078394;28;20090;-80
2022/05/06 04:31:13;;;;;;;6.00;3.33;;;;;;;;;;5076044;28;20045;-79
2022/05/06 04:33:41;;;;;;;8.18;4.30;;;;;;;;;;5078472;28;20048;-79
2022/05/06 04:36:09;;;;;;;6.18;3.15;;;;;;;;;;5078005;28;20044;-79
2022/05/06 04:38:36;;;;;;;6.22;2.97;;;;;;;;;;5079139;28;20048;-79
2022/05/06 04:41:03;;;;;;;5.05;3.13;;;;;;;;;;5078042;28;20074;-79
2022/05/06 04:43:32;;;;;;;5.30;2.80;;;;;;;;;;5078131;28;20494;-80
2022/05/06 04:45:59;;;;;;;5.30;2.78;;;;;;;;;;5077758;28;20049;-78
2022/05/06 04:48:26;;;;;;;4.97;2.40;;;;;;;;;;5078228;28;20635;-79
2022/05/06 04:50:53;;;;;;;5.18;2.83;;;;;;;;;;5078068;28;20047;-78
2022/05/06 04:53:20;;;;;;;5.35;3.13;;;;;;;;;;5078852;28;20097;-79
2022/05/06 04:55:49;;;;;;;5.70;3.28;;;;;;;;;;5080267;28;20411;-80
2022/05/06 04:58:16;;;;;;;5.72;3.03;;;;;;;;;;5079088;28;20071;-80
2022/05/06 05:00:45;;;;;;;5.22;2.80;;;;;;;;;;5079588;28;20044;-80
2022/05/06 05:03:12;;;;;;;5.00;2.50;;;;;;;;;;5084261;28;20059;-78
2022/05/06 05:05:39;;;;;;;4.40;2.10;;;;;;;;;;5091196;28;20071;-77
2022/05/06 05:08:08;;;;;;;4.75;2.60;;;;;;;;;;5091705;28;20076;-80
2022/05/06 05:10:35;;;;;;;3.78;2.00;;;;;;;;;;5080105;28;20052;-79
2022/05/06 05:13:02;;;;;;;3.75;1.98;;;;;;;;;;5080031;28;20061;-80
2022/05/06 05:15:29;;;;;;;4.82;2.33;;;;;;;;;;5078703;28;20131;-81
2022/05/06 05:17:58;;;;;;;4.38;2.22;;;;;;;;;;5079023;28;20044;-80
2022/05/06 05:20:25;;;;;;;3.75;2.00;;;;;;;;;;5066026;22;20049;-78
2022/05/06 05:22:51;;;;;;;4.25;2.15;;;;;;;;;;5033110;28;20045;-78
2022/05/06 05:25:18;;;;;;;3.92;2.00;;;;;;;;;;5032943;28;20104;-77
2022/05/06 05:27:45;;;;;;;5.07;2.25;;;;;;;;;;5033788;28;20050;-79
2022/05/06 05:30:13;;;;;;;5.00;2.08;;;;;;;;;;5042702;28;20094;-77
2022/05/06 05:32:40;;;;;;;4.30;2.33;;;;;;;;;;5053558;28;20041;-77
2022/05/06 05:35:09;;;;;;;5.97;2.65;;;;;;;;;;5052698;28;20051;-78
2022/05/06 05:37:36;;;;;;;5.53;2.60;;;;;;;;;;5053913;28;20456;-76
2022/05/06 05:40:03;;;;;;;6.45;3.20;;;;;;;;;;5055301;28;20129;-75
2022/05/06 05:42:30;;;;;;;4.30;2.83;;;;;;;;;;5057689;28;20071;-77
2022/05/06 05:50:29;;;;;;;7.13;4.07;;;;;;;;;;5052845;28;20060;-78
2022/05/06 05:52:55;;;;;;;4.82;2.80;;;;;;;;;;5052995;28;20052;-76
2022/05/06 05:55:23;;;;;;;6.43;2.85;;;;;;;;;;5052064;28;20041;-77
2022/05/06 05:57:49;;;;;;;7.18;3.17;;;;;;;;;;5052067;28;20044;-76
2022/05/06 06:00:17;;;;;;;5.95;3.08;;;;;;;;;;5051982;28;20562;-76
2022/05/06 06:02:44;;;;;;;7.03;3.33;;;;;;;;;;5052516;28;20075;-77
2022/05/06 06:05:11;;;;;;;5.25;2.92;;;;;;;;;;5051683;28;20102;-77
2022/05/06 06:07:39;;;;;;;5.88;2.80;;;;;;;;;;5052319;28;20044;-77
2022/05/06 06:10:07;;;;;;;5.18;2.78;;;;;;;;;;5051903;28;20076;-77
2022/05/06 06:12:33;;;;;;;5.63;2.65;;;;;;;;;;5052245;28;20045;-77
2022/05/06 06:15:00;;;;;;;5.20;2.83;;;;;;;;;;5051451;28;20053;-77
2022/05/06 06:17:28;;;;;;;4.70;2.80;;;;;;;;;;5053152;28;20135;-77
2022/05/06 06:19:55;;;;;;;5.95;2.75;;;;;;;;;;5051994;28;20056;-77
2022/05/06 06:22:22;;;;;;;4.78;2.53;;;;;;;;;;5051871;28;20057;-77
2022/05/06 06:24:50;;;;;;;5.88;2.67;;;;;;;;;;5051560;28;20057;-77
2022/05/06 06:27:17;;;;;;;4.13;2.45;;;;;;;;;;5052390;28;20048;-77
2022/05/06 06:29:45;;;;;;;5.07;2.50;;;;;;;;;;5052385;28;20053;-76
2022/05/06 06:32:12;;;;;;;5.60;2.85;;;;;;;;;;5052399;28;20519;-77
2022/05/06 06:34:42;;;;;;;5.00;2.50;;;;;;;;;;5052567;28;20212;-77
2022/05/06 06:37:09;;;;;;;3.90;2.30;;;;;;;;;;5052754;28;20055;-77
2022/05/06 06:39:36;;;;;;;5.75;2.17;;;;;;;;;;5052464;28;20045;-77
2022/05/06 06:42:05;;;;;;;3.70;1.90;;;;;;;;;;5053861;28;20044;-77
2022/05/06 06:44:32;;;;;;;3.97;2.05;;;;;;;;;;5056426;28;20053;-77
2022/05/06 06:46:59;;;;;;;5.95;1.98;;;;;;;;;;5057983;28;20052;-77
2022/05/06 06:49:26;;;;;;;4.35;2.20;;;;;;;;;;5035134;28;20046;-78
2022/05/06 06:51:53;;;;;;;7.25;3.63;;;;;;;;;;5033055;28;20045;-78
2022/05/06 06:54:19;;;;;;;5.03;2.65;;;;;;;;;;5031850;28;20045;-76
2022/05/06 06:56:46;;;;;;;5.28;3.20;;;;;;;;;;5033847;28;20057;-76
2022/05/06 06:59:15;;;;;;;6.80;3.20;;;;;;;;;;5033896;28;20045;-76
2022/05/06 07:01:41;;;;;;;6.35;3.30;;;;;;;;;;5034865;28;20064;-78
2022/05/06 07:04:08;;;;;;;8.93;3.90;;;;;;;;;;5033516;28;20111;-77
2022/05/06 07:12:04;;;;;;;6.97;3.78;;;;;;;;;;5033665;28;20056;-76
2022/05/06 07:14:33;;;;;;;7.63;4.07;;;;;;;;;;5023048;28;20049;-77
2022/05/06 07:17:00;;;;;;;9.05;4.90;;;;;;;;;;5027289;28;20555;-77
2022/05/06 07:19:27;;;;;;;7.28;3.90;;;;;;;;;;5017220;28;20053;-77
2022/05/06 07:21:53;;;;;;;7.40;4.55;;;;;;;;;;5026861;28;20038;-76
2022/05/06 07:24:21;;;;;;;7.18;4.38;;;;;;;;;;5038218;28;20030;-77
2022/05/06 07:26:48;;;;;;;8.02;4.82;;;;;;;;;;5023621;28;20428;-77
2022/05/06 07:29:16;;;;;;;8.68;5.13;;;;;;;;;;5014990;28;20053;-78
2022/05/06 07:31:44;;;;;;;6.97;4.45;;;;;;;;;;5014430;28;20049;-76
2022/05/06 07:34:11;;;;;;;11.25;7.55;;;;;;;;;;5013464;28;20390;-77
2022/05/06 07:36:41;;;;;;;12.57;8.07;;;;;;;;;;5013368;28;20050;-77
2022/05/06 07:39:10;;;;;;;10.77;7.70;;;;;;;;;;5013282;28;20054;-76
2022/05/06 07:41:37;;;;;;;10.70;7.93;;;;;;;;;;5013072;28;20076;-77
2022/05/06 07:44:04;;;;;;;11.73;8.07;;;;;;;;;;5013260;28;20049;-77
2022/05/06 07:46:31;;;;;;;11.75;7.85;;;;;;;;;;5013075;28;20042;-79
2022/05/06 07:48:59;;;;;;;8.50;5.80;;;;;;;;;;5016792;28;20054;-78
2022/05/06 07:51:27;;;;;;;8.48;5.72;;;;;;;;;;5017051;28;20046;-80
2022/05/06 07:53:55;;;;;;;9.50;7.53;;;;;;;;;;5014380;28;20046;-80
2022/05/06 07:56:22;;;;;;;10.38;6.55;;;;;;;;;;5012780;28;20042;-78
2022/05/06 07:58:49;;;;;;;10.75;6.90;;;;;;;;;;5012343;28;20058;-78
2022/05/06 08:01:16;;;;;;;10.55;6.75;;;;;;;;;;5012117;28;20060;-77
2022/05/06 08:06:30;;;;;;;17.63;12.02;;;;;;;;;;5011675;28;20060;-76
2022/05/06 08:08:57;;;;;;;13.73;9.00;;;;;;;;;;5013039;28;20065;-78
2022/05/06 08:11:24;;;;;;;10.60;7.53;;;;;;;;;;5013709;28;20049;-77
2022/05/06 08:13:51;;;;;;;10.07;6.30;;;;;;;;;;5012860;28;20045;-77
2022/05/06 08:16:18;;;;;;;10.35;6.78;;;;;;;;;;5015622;28;20497;-77
2022/05/06 08:18:45;;;;;;;12.30;8.77;;;;;;;;;;5015589;28;20049;-77
2022/05/06 08:21:12;;;;;;;10.32;7.78;;;;;;;;;;5012997;28;20692;-77
2022/05/06 08:23:40;;;;;;;10.70;8.20;;;;;;;;;;5013063;28;20050;-77
2022/05/06 08:26:07;;;;;;;9.52;6.70;;;;;;;;;;5014372;28;20631;-76
2022/05/06 08:28:34;;;;;;;12.30;8.57;;;;;;;;;;5013148;28;20440;-77
2022/05/06 08:31:02;;;;;;;22.75;15.35;;;;;;;;;;5013021;28;20050;-77
2022/05/06 08:33:28;;;;;;;22.52;15.32;;;;;;;;;;5015098;28;20058;-77
2022/05/06 08:35:55;;;;;;;13.52;8.52;;;;;;;;;;5011476;28;20049;-77
2022/05/06 08:38:22;;;;;;;12.07;8.02;;;;;;;;;;5011670;28;20050;-77
2022/05/06 08:40:51;;;;;;;13.00;10.13;;;;;;;;;;5011732;28;20076;-78
2022/05/06 08:43:18;;;;;;;12.95;9.82;;;;;;;;;;5011495;28;20077;-77
2022/05/06 08:51:15;;;;;;;15.25;10.95;;;;;;;;;;5051537;28;20129;-76
2022/05/06 08:53:42;;;;;;;15.13;11.45;;;;;;;;;;5051222;28;20056;-77
2022/05/06 08:56:11;;;;;;;16.38;12.00;;;;;;;;;;5050896;28;20049;-78
2022/05/06 08:58:37;;;;;;;18.02;13.82;;;;;;;;;;5051108;28;20084;-76
2022/05/06 09:01:06;;;;;;;20.23;13.25;;;;;;;;;;5023908;28;20390;-76
2022/05/06 09:03:33;;;;;;;22.10;14.65;;;;;;;;;;5011158;28;20046;-77
2022/05/06 09:06:00;;;;;;;20.85;15.13;;;;;;;;;;5010878;28;20050;-77
2022/05/06 09:08:38;;;;;;;20.92;15.52;;;;;;;;;;5011309;28;20603;-78
2022/05/06 09:11:07;;;;;;;20.48;14.20;;;;;;;;;;5010778;28;20192;-77
2022/05/06 09:13:37;;;;;;;22.17;15.10;;;;;;;;;;5010872;28;20075;-77
2022/05/06 09:19:13;;;;;;;26.23;17.63;;;;;;;;;;5010862;28;20056;-78
2022/05/06 09:21:41;;;;;;;29.35;20.10;;;;;;;;;;5011244;28;20045;-77
2022/05/06 09:24:19;;;;;;;30.60;22.08;;;;;;;;;;5014881;28;20080;-77
2022/05/06 09:27:03;;;;;;;26.65;19.98;;;;;;;;;;5030321;28;20041;-77
2022/05/06 09:29:35;;;;;;;23.38;17.58;;;;;;;;;;5030648;28;20056;-76
2022/05/06 09:32:19;;;;;;;24.58;16.95;;;;;;;;;;5030866;28;20132;-77
2022/05/06 09:34:48;;;;;;;21.85;16.48;;;;;;;;;;5030651;28;20078;-78
2022/05/06 09:37:30;;;;;;;21.52;15.68;;;;;;;;;;5024296;28;20053;-77
2022/05/06 09:40:08;;;;;;;20.80;14.40;;;;;;;;;;5030306;28;20059;-78
2022/05/06 09:42:37;;;;;;;21.70;16.05;;;;;;;;;;5017217;28;20077;-77
2022/05/06 09:45:06;;;;;;;25.58;17.00;;;;;;;;;;5011144;28;20050;-77
2022/05/06 09:47:33;;;;;;;21.70;15.70;;;;;;;;;;5011044;28;20108;-78
2022/05/06 09:50:00;;;;;;;26.45;17.80;;;;;;;;;;5010566;28;20054;-77
2022/05/06 09:52:27;;;;;;;23.95;17.17;;;;;;;;;;5010904;28;20061;-78
2022/05/06 09:54:56;;;;;;;23.83;16.73;;;;;;;;;;5011428;28;20045;-77
2022/05/06 09:57:23;;;;;;;22.92;17.23;;;;;;;;;;5013151;28;20054;-78
2022/05/06 09:59:50;;;;;;;24.38;18.60;;;;;;;;;;5012790;28;20038;-78
2022/05/06 10:02:18;;;;;;;24.13;17.60;;;;;;;;;;5012914;28;20042;-77
2022/05/06 10:04:47;;;;;;;24.55;18.27;;;;;;;;;;5012206;28;20046;-78
2022/05/06 10:07:16;;;;;;;28.40;17.67;;;;;;;;;;5012270;28;20041;-76
2022/05/06 10:09:53;;;;;;;22.30;16.45;;;;;;;;;;5011353;28;20053;-77
2022/05/06 10:12:21;;;;;;;24.17;17.50;;;;;;;;;;5012662;28;20100;-76
2022/05/06 10:14:49;;;;;;;21.73;16.35;;;;;;;;;;5012870;28;20050;-76
2022/05/06 10:17:51;;;;;;;24.83;17.05;;;;;;;;;;5027113;28;20046;-77
2022/05/06 10:20:51;;;;;;;22.92;16.83;;;;;;;;;;5033692;28;20060;-76
2022/05/06 10:23:19;;;;;;;26.60;17.63;;;;;;;;;;5010966;28;20054;-76
2022/05/06 10:25:52;;;;;;;23.38;17.13;;;;;;;;;;5013969;28;20096;-77
2022/05/06 10:34:30;;;;;;;27.10;19.98;;;;;;;;;;5017253;28;20109;-76
2022/05/06 10:37:00;;;;;;;25.40;17.90;;;;;;;;;;5016433;28;20046;-77
2022/05/06 10:39:29;;;;;;;26.20;18.65;;;;;;;;;;5016167;28;20049;-77
2022/05/06 10:42:07;;;;;;;26.52;19.52;;;;;;;;;;5019432;28;20053;-77
2022/05/06 10:44:36;;;;;;;26.20;18.73;;;;;;;;;;5035348;28;20050;-76
2022/05/06 10:47:04;;;;;;;31.20;21.30;;;;;;;;;;5056560;28;20033;-76
2022/05/06 10:49:54;;;;;;;29.13;20.08;;;;;;;;;;5056319;28;20084;-76
2022/05/06 10:52:41;;;;;;;29.80;21.45;;;;;;;;;;5052235;28;20448;-77
2022/05/06 10:55:10;;;;;;;27.92;20.55;;;;;;;;;;5050005;28;20057;-77
2022/05/06 10:57:53;;;;;;;22.90;17.30;;;;;;;;;;5043806;28;20069;-77
2022/05/06 11:00:21;;;;;;;25.67;18.60;;;;;;;;;;5038460;28;20416;-76
2022/05/06 11:02:49;;;;;;;27.35;19.50;;;;;;;;;;5037371;28;20046;-78
2022/05/06 11:05:20;;;;;;;26.55;18.20;;;;;;;;;;5036460;28;20049;-78
2022/05/06 11:07:48;;;;;;;26.77;19.15;;;;;;;;;;5036488;28;20508;-78
2022/05/06 11:10:17;;;;;;;26.13;19.00;;;;;;;;;;5035834;28;20045;-78
2022/05/06 11:12:46;;;;;;;26.35;19.13;;;;;;;;;;5035998;28;20053;-78
2022/05/06 11:15:14;;;;;;;27.77;18.80;;;;;;;;;;5035586;28;20057;-77
2022/05/06 11:17:42;;;;;;;27.38;20.05;;;;;;;;;;5035659;28;20053;-78
2022/05/06 11:20:23;;;;;;;24.27;18.35;;;;;;;;;;5035665;28;20060;-78
2022/05/06 11:22:54;;;;;;;24.00;17.27;;;;;;;;;;5042963;28;20079;-77
2022/05/06 11:25:22;;;;;;;25.23;18.48;;;;;;;;;;5039557;28;20056;-77
2022/05/06 11:27:50;;;;;;;25.13;19.27;;;;;;;;;;5038494;28;20049;-77
2022/05/06 11:30:18;;;;;;;45.08;32.28;;;;;;;;;;5039513;28;20448;-77
2022/05/06 11:32:50;;;;;;;41.92;27.23;;;;;;;;;;5040803;28;20049;-78
2022/05/06 11:35:22;;;;;;;30.60;21.20;;;;;;;;;;5044715;28;20071;-78
2022/05/06 11:37:49;;;;;;;39.92;25.35;;;;;;;;;;5040874;28;20049;-76
2022/05/06 11:40:36;;;;;;;29.98;21.42;;;;;;;;;;5037164;28;20073;-75
2022/05/06 11:43:08;;;;;;;32.00;23.52;;;;;;;;;;5033808;28;20521;-76
2022/05/06 11:48:22;;;;;;;30.42;21.48;;;;;;;;;;5056295;28;20056;-77
2022/05/06 11:51:04;;;;;;;29.25;20.02;;;;;;;;;;5055879;28;20045;-77
2022/05/06 11:53:31;;;;;;;26.27;19.55;;;;;;;;;;5055892;28;20163;-76
2022/05/06 11:55:59;;;;;;;26.52;19.25;;;;;;;;;;5055784;28;20056;-78
2022/05/06 11:58:26;;;;;;;22.90;16.77;;;;;;;;;;5056992;28;20075;-77
2022/05/06 12:00:54;;;;;;;23.77;18.65;;;;;;;;;;5057668;28;20041;-77
2022/05/06 12:03:23;;;;;;;28.92;18.83;;;;;;;;;;5056099;28;20045;-77
2022/05/06 12:06:03;;;;;;;25.60;18.48;;;;;;;;;;5057587;28;20075;-77
2022/05/06 12:08:32;;;;;;;22.00;17.13;;;;;;;;;;5059015;28;20073;-77
2022/05/06 12:10:59;;;;;;;23.75;17.08;;;;;;;;;;5057525;28;20084;-77
2022/05/06 12:13:32;;;;;;;21.73;15.93;;;;;;;;;;5057100;28;20080;-77
2022/05/06 12:16:06;;;;;;;21.27;15.57;;;;;;;;;;5055863;28;20480;-78
2022/05/06 12:18:33;;;;;;;20.98;16.30;;;;;;;;;;5053123;28;20077;-78
2022/05/06 12:21:16;;;;;;;20.35;15.88;;;;;;;;;;5052853;28;20135;-77
2022/05/06 12:23:50;;;;;;;21.73;16.27;;;;;;;;;;5062592;28;20044;-77
2022/05/06 12:26:30;;;;;;;22.60;15.55;;;;;;;;;;5065677;28;20044;-77
2022/05/06 12:28:57;;;;;;;17.58;14.18;;;;;;;;;;5063221;28;20124;-76
2022/05/06 12:31:28;;;;;;;19.33;15.63;;;;;;;;;;5059744;28;20052;-76
2022/05/06 12:34:02;;;;;;;19.70;15.15;;;;;;;;;;5055829;28;20206;-77
2022/05/06 12:36:30;;;;;;;18.92;14.75;;;;;;;;;;5056447;28;20059;-76
2022/05/06 12:38:57;;;;;;;22.65;16.35;;;;;;;;;;5054930;28;20067;-76
2022/05/06 12:41:26;;;;;;;19.63;14.80;;;;;;;;;;5054946;28;20048;-77
2022/05/06 12:43:57;;;;;;;19.50;14.52;;;;;;;;;;5053974;28;20044;-77
2022/05/06 12:46:27;;;;;;;19.63;14.52;;;;;;;;;;5055483;28;20048;-76
2022/05/06 12:51:41;;;;;;;21.98;15.60;;;;;;;;;;5053267;28;20060;-76
2022/05/06 12:54:09;;;;;;;21.13;15.98;;;;;;;;;;5040321;28;20056;-76
2022/05/06 12:56:36;;;;;;;23.40;17.73;;;;;;;;;;5034430;28;20073;-76
2022/05/06 12:59:04;;;;;;;23.70;18.17;;;;;;;;;;5033176;28;20056;-77
2022/05/06 13:01:31;;;;;;;21.77;16.30;;;;;;;;;;5035171;28;20095;-76
2022/05/06 13:03:58;;;;;;;21.60;15.52;;;;;;;;;;5035154;28;20072;-76
2022/05/06 13:06:25;;;;;;;23.58;17.45;;;;;;;;;;5033009;28;20053;-77
2022/05/06 13:08:53;;;;;;;21.45;16.02;;;;;;;;;;5032476;28;20041;-77
2022/05/06 13:11:20;;;;;;;21.80;16.20;;;;;;;;;;5032649;28;20401;-76
2022/05/06 13:13:47;;;;;;;22.15;16.23;;;;;;;;;;5033368;28;20045;-76
2022/05/06 13:16:14;;;;;;;23.45;17.75;;;;;;;;;;5054500;28;20033;-76
2022/05/06 13:18:40;;;;;;;22.33;16.27;;;;;;;;;;5033979;28;20045;-76
2022/05/06 13:21:08;;;;;;;22.00;16.08;;;;;;;;;;5035740;28;20107;-76
2022/05/06 13:23:35;;;;;;;23.73;16.65;;;;;;;;;;5033796;28;20049;-77
2022/05/06 13:26:03;;;;;;;24.55;16.75;;;;;;;;;;5031477;28;20057;-77
2022/05/06 13:28:30;;;;;;;23.13;16.70;;;;;;;;;;5031082;28;20060;-77
2022/05/06 13:30:57;;;;;;;24.38;16.88;;;;;;;;;;5031664;28;20053;-76
2022/05/06 13:33:24;;;;;;;22.23;16.58;;;;;;;;;;5031308;28;20054;-76
2022/05/06 13:35:52;;;;;;;25.52;16.92;;;;;;;;;;5030495;28;20045;-76
2022/05/06 13:38:19;;;;;;;23.15;16.17;;;;;;;;;;5031803;28;20049;-77
2022/05/06 13:40:48;;;;;;;23.45;16.13;;;;;;;;;;5031026;28;20076;-77
2022/05/06 13:43:16;;;;;;;21.65;16.13;;;;;;;;;;5031260;28;20056;-76
2022/05/06 13:45:43;;;;;;;20.80;15.75;;;;;;;;;;5033324;28;20054;-75
2022/05/06 13:48:11;;;;;;;19.90;14.82;;;;;;;;;;5051392;28;20561;-78
2022/05/06 13:50:38;;;;;;;23.88;17.50;;;;;;;;;;5051379;28;20136;-79
2022/05/06 13:53:06;;;;;;;21.95;16.30;;;;;;;;;;5054438;28;20068;-81
2022/05/06 14:01:00;;;;;;;21.27;15.55;;;;;;;;;;5058623;28;20052;-78
2022/05/06 14:03:26;;;;;;;16.15;12.88;;;;;;;;;;5053098;28;20052;-77
2022/05/06 14:05:53;;;;;;;17.98;12.60;;;;;;;;;;5058866;28;20107;-79
2022/05/06 14:08:20;;;;;;;19.13;15.27;;;;;;;;;;5060861;28;20041;-82
2022/05/06 14:10:47;;;;;;;16.95;12.82;;;;;;;;;;5058574;28;20514;-78
2022/05/06 14:13:14;;;;;;;15.15;11.05;;;;;;;;;;5058221;28;20049;-79
2022/05/06 14:15:42;;;;;;;14.07;10.70;;;;;;;;;;5064873;28;20053;-77
2022/05/06 14:18:09;;;;;;;16.15;11.93;;;;;;;;;;5063198;28;20049;-80
2022/05/06 14:20:36;;;;;;;17.75;13.32;;;;;;;;;;5058773;28;20113;-79
2022/05/06 14:23:03;;;;;;;15.73;12.52;;;;;;;;;;5058591;28;20103;-77
2022/05/06 14:25:29;;;;;;;17.60;13.27;;;;;;;;;;5058675;28;20446;-79
2022/05/06 14:27:56;;;;;;;16.15;12.07;;;;;;;;;;5059335;28;20049;-78
2022/05/06 14:30:24;;;;;;;15.38;11.75;;;;;;;;;;5059786;28;20056;-77
2022/05/06 14:32:52;;;;;;;13.75;11.05;;;;;;;;;;5060013;28;20135;-78
2022/05/06 14:35:20;;;;;;;15.30;11.55;;;;;;;;;;5058161;28;20450;-78
2022/05/06 14:37:48;;;;;;;14.52;11.02;;;;;;;;;;5058224;28;20095;-78
2022/05/06 14:40:16;;;;;;;15.48;10.50;;;;;;;;;;5058667;28;20071;-79
2022/05/06 14:42:44;;;;;;;18.25;12.80;;;;;;;;;;5058774;28;20055;-78
2022/05/06 14:45:12;;;;;;;13.88;11.15;;;;;;;;;;5057848;28;20518;-78
2022/05/06 14:47:39;;;;;;;15.30;11.48;;;;;;;;;;5040528;28;20045;-79
2022/05/06 14:50:09;;;;;;;14.30;10.95;;;;;;;;;;5036822;28;20046;-76
2022/05/06 14:52:36;;;;;;;15.88;12.18;;;;;;;;;;5033920;28;20054;-77
2022/05/06 14:55:04;;;;;;;15.77;11.60;;;;;;;;;;5034817;28;20050;-77
2022/05/06 14:57:31;;;;;;;17.15;13.52;;;;;;;;;;5034895;28;20107;-76
2022/05/06 14:59:58;;;;;;;16.35;12.05;;;;;;;;;;5034394;28;20488;-78
2022/05/06 15:02:25;;;;;;;18.35;12.15;;;;;;;;;;5038048;28;20049;-76
2022/05/06 15:04:52;;;;;;;16.90;13.45;;;;;;;;;;5034399;28;20076;-79
2022/05/06 15:07:20;;;;;;;19.10;13.60;;;;;;;;;;5034999;28;20046;-77
2022/05/06 15:09:47;;;;;;;18.10;13.23;;;;;;;;;;5034495;28;20099;-77
2022/05/06 15:12:15;;;;;;;18.83;14.35;;;;;;;;;;5035230;28;20072;-79
2022/05/06 15:14:42;;;;;;;19.40;14.30;;;;;;;;;;5035679;28;20140;-75
2022/05/06 15:17:14;;;;;;;20.23;14.93;;;;;;;;;;5033907;28;20049;-77
2022/05/06 15:19:41;;;;;;;19.42;14.27;;;;;;;;;;5034495;28;20574;-76
2022/05/06 15:22:07;;;;;;;21.23;15.50;;;;;;;;;;5035204;28;20054;-77
2022/05/06 15:24:36;;;;;;;24.40;17.00;;;;;;;;;;5033699;28;20496;-79
2022/05/06 15:27:04;;;;;;;24.67;17.10;;;;;;;;;;5034659;28;20057;-78